Time;durP1;ratioP1;P1;durP2;ratioP2;P2;SDS_P1;SDS_P2;PMS_P1;PMS_P2;Temp;Humidity;BMP_temperature;BMP_pressure;BME280_temperature;BME280_humidity;BME280_pressure;Samples;Min_cycle;Max_cycle;Signal;HPM_P1;HPM_P2
2022/05/29 00:00:47;;;;;;;10.23;1.80;;;;;;;7.55;82.39;101690.50;5115226;28;20027;-86
2022/05/29 00:03:13;;;;;;;9.80;2.13;;;;;;;7.53;82.84;101684.44;5098201;28;20036;-85
2022/05/29 00:05:39;;;;;;;5.35;1.30;;;;;;;7.49;82.72;101675.81;5098235;28;20048;-85
2022/05/29 00:08:06;;;;;;;7.75;2.15;;;;;;;7.50;83.30;101684.75;5116116;28;20047;-86
2022/05/29 00:10:36;;;;;;;6.10;1.30;;;;;;;7.47;82.96;101683.28;5098315;28;20082;-85
2022/05/29 00:13:01;;;;;;;12.00;2.00;;;;;;;7.44;83.50;101680.94;5114822;28;20055;-85
2022/05/29 00:15:27;;;;;;;4.03;1.80;;;;;;;7.43;83.12;101678.41;5098636;28;20056;-85
2022/05/29 00:17:52;;;;;;;8.45;1.95;;;;;;;7.40;83.17;101676.03;5116500;28;20450;-85
2022/05/29 00:20:18;;;;;;;5.37;1.80;;;;;;;7.39;83.02;101677.88;5114829;28;20456;-85
2022/05/29 00:22:44;;;;;;;5.28;1.42;;;;;;;7.36;83.38;101670.13;5114832;28;20106;-85
2022/05/29 00:25:10;;;;;;;7.37;1.97;;;;;;;7.37;83.39;101674.53;5097027;28;20035;-86
2022/05/29 00:27:37;;;;;;;9.30;1.55;;;;;;;7.34;83.70;101664.09;5114767;28;20024;-85
2022/05/29 00:30:06;;;;;;;8.38;1.60;;;;;;;7.34;83.29;101661.38;5115283;28;20032;-85
2022/05/29 00:32:31;;;;;;;7.82;2.38;;;;;;;7.36;83.61;101670.97;5114670;28;20030;-85
2022/05/29 00:34:57;;;;;;;6.73;2.00;;;;;;;7.31;83.99;101662.56;5114492;28;20024;-85
2022/05/29 00:37:22;;;;;;;7.13;1.50;;;;;;;7.27;84.02;101660.38;5115693;28;20038;-86
2022/05/29 00:39:50;;;;;;;9.77;1.70;;;;;;;7.24;84.34;101661.56;5115596;28;20098;-86
2022/05/29 00:42:20;;;;;;;8.30;1.90;;;;;;;7.24;84.52;101658.03;5098250;28;20318;-86
2022/05/29 00:44:45;;;;;;;5.63;1.90;;;;;;;7.23;84.41;101653.66;5114483;28;20120;-86
2022/05/29 00:47:21;;;;;;;8.13;1.77;;;;;;;7.20;84.30;101655.69;5114321;28;20122;-85
2022/05/29 00:49:49;;;;;;;8.93;2.10;;;;;;;7.17;85.32;101653.31;5114531;28;20028;-86
2022/05/29 00:52:18;;;;;;;7.10;1.75;;;;;;;7.20;85.38;101646.72;5114705;28;20028;-86
2022/05/29 00:54:56;;;;;;;7.15;2.17;;;;;;;7.17;85.46;101645.22;5114206;28;20428;-85
2022/05/29 00:57:33;;;;;;;9.38;2.10;;;;;;;7.15;86.12;101638.34;5114630;28;20028;-86
2022/05/29 01:00:03;;;;;;;10.33;2.83;;;;;;;7.15;86.24;101644.56;5115367;28;20110;-86
2022/05/29 01:02:29;;;;;;;5.35;2.00;;;;;;;7.14;86.64;101645.56;5114360;28;20028;-86
2022/05/29 01:04:56;;;;;;;6.47;2.37;;;;;;;7.14;86.78;101642.03;5114086;28;20032;-86
2022/05/29 01:07:23;;;;;;;7.57;2.40;;;;;;;7.12;86.21;101634.13;5113986;28;20027;-86
2022/05/29 01:09:49;;;;;;;12.60;2.45;;;;;;;7.19;86.34;101629.72;5114187;28;20375;-86
2022/05/29 01:12:24;;;;;;;8.93;2.20;;;;;;;7.29;86.43;101639.44;5114133;28;20020;-86
2022/05/29 01:14:56;;;;;;;9.27;2.30;;;;;;;7.37;85.79;101628.63;5114147;28;20035;-85
2022/05/29 01:17:40;;;;;;;14.87;2.33;;;;;;;7.46;86.68;101624.88;5114201;28;20027;-86
2022/05/29 01:20:08;;;;;;;9.10;2.58;;;;;;;7.54;85.64;101624.00;5114037;28;20028;-85
2022/05/29 01:23:04;;;;;;;7.60;2.65;;;;;;;7.62;85.62;101623.97;5114502;28;20062;-85
2022/05/29 01:25:30;;;;;;;12.40;2.33;;;;;;;7.68;86.05;101623.25;5113360;28;20086;-86
2022/05/29 01:28:04;;;;;;;7.90;2.10;;;;;;;7.72;86.05;101629.97;5114669;28;20471;-86
2022/05/29 01:30:37;;;;;;;10.30;2.15;;;;;;;7.72;85.86;101615.63;5113898;28;20027;-86
2022/05/29 01:33:21;;;;;;;13.02;2.85;;;;;;;7.72;85.83;101624.56;5113667;28;20455;-86
2022/05/29 01:36:05;;;;;;;9.73;3.00;;;;;;;7.72;85.10;101615.63;5113928;28;20062;-85
2022/05/29 01:38:39;;;;;;;9.90;2.10;;;;;;;7.71;85.52;101614.78;5113259;28;20027;-86
2022/05/29 01:41:36;;;;;;;7.85;2.30;;;;;;;7.67;85.27;101610.75;5112819;28;20046;-85
2022/05/29 01:44:15;;;;;;;8.25;2.22;;;;;;;7.61;86.38;101610.63;5075794;28;20043;-85
2022/05/29 01:46:45;;;;;;;10.68;2.42;;;;;;;7.53;87.34;101601.56;5114193;28;20027;-86
2022/05/29 01:49:34;;;;;;;11.43;2.50;;;;;;;7.53;88.11;101606.94;5113178;28;20039;-85
2022/05/29 01:52:01;;;;;;;7.85;2.25;;;;;;;7.53;87.88;101606.94;5113849;28;20122;-86
2022/05/29 01:54:35;;;;;;;12.90;2.90;;;;;;;7.51;87.36;101597.34;5113496;28;20035;-85
2022/05/29 01:57:23;;;;;;;12.20;2.30;;;;;;;7.48;87.23;101600.41;5113420;28;20088;-85
2022/05/29 02:00:07;;;;;;;7.47;2.72;;;;;;;7.43;87.38;101594.69;5113861;28;20401;-86
2022/05/29 02:02:51;;;;;;;12.10;2.40;;;;;;;7.41;88.85;101594.88;5113104;28;20031;-85
2022/05/29 02:05:25;;;;;;;9.73;2.65;;;;;;;7.36;87.69;101598.06;5113242;28;20035;-86
2022/05/29 02:07:57;;;;;;;10.75;2.30;;;;;;;7.28;87.97;101589.16;5114955;28;20030;-85
2022/05/29 02:10:32;;;;;;;7.18;2.42;;;;;;;7.22;87.73;101585.34;5112929;28;20035;-85
2022/05/29 02:13:03;;;;;;;13.20;2.53;;;;;;;7.13;87.96;101589.06;5113137;28;20032;-86
2022/05/29 02:15:37;;;;;;;8.67;2.80;;;;;;;7.08;88.40;101595.00;5112566;28;20039;-85
2022/05/29 02:18:08;;;;;;;9.23;2.60;;;;;;;7.01;88.46;101586.75;5113206;28;20035;-85
2022/05/29 02:20:40;;;;;;;6.63;2.40;;;;;;;7.01;89.46;101591.31;5113095;28;20038;-86
2022/05/29 02:23:21;;;;;;;8.32;2.70;;;;;;;7.04;88.70;101585.56;5113349;28;20115;-85
2022/05/29 02:25:47;;;;;;;7.47;2.88;;;;;;;7.09;89.56;101582.34;5113576;28;20444;-86
2022/05/29 02:28:21;;;;;;;8.43;2.87;;;;;;;7.14;89.98;101582.66;5096003;28;20035;-86
2022/05/29 02:30:59;;;;;;;11.20;3.33;;;;;;;7.15;89.32;101581.66;5113041;28;20099;-86
2022/05/29 02:33:50;;;;;;;7.30;2.60;;;;;;;7.16;88.90;101575.22;5112726;28;20030;-86
2022/05/29 02:36:29;;;;;;;7.88;2.67;;;;;;;7.16;88.39;101575.22;5113034;28;20096;-85
2022/05/29 02:39:43;;;;;;;7.63;2.70;;;;;;;7.16;87.97;101584.19;5112327;28;20028;-85
2022/05/29 02:42:20;;;;;;;4.60;2.40;;;;;;;7.09;89.37;101574.25;5015297;28;20041;-86
2022/05/29 02:44:55;;;;;;;8.70;2.60;;;;;;;6.98;88.82;101572.75;5108696;28;20046;-85
2022/05/29 02:47:29;;;;;;;8.30;2.47;;;;;;;6.93;89.61;101573.28;5113871;28;20023;-85
2022/05/29 02:50:18;;;;;;;7.45;2.67;;;;;;;6.86;89.07;101572.28;5112570;28;20027;-85
2022/05/29 02:52:44;;;;;;;8.90;2.55;;;;;;;6.85;89.64;101570.63;5112849;28;20028;-86
2022/05/29 02:55:10;;;;;;;8.07;3.07;;;;;;;6.87;89.97;101567.75;5112770;28;20030;-86
2022/05/29 02:57:36;;;;;;;6.97;2.65;;;;;;;6.90;89.70;101562.00;5112459;28;20040;-85
2022/05/29 03:00:11;;;;;;;7.87;2.60;;;;;;;6.91;89.47;101560.97;5112356;28;20035;-86
2022/05/29 03:02:53;;;;;;;11.20;2.75;;;;;;;6.93;89.16;101559.78;5112444;28;20108;-86
2022/05/29 03:06:07;;;;;;;10.50;2.88;;;;;;;6.93;90.05;101558.97;5112681;28;20031;-85
2022/05/29 03:08:47;;;;;;;5.45;2.33;;;;;;;6.99;88.89;101553.69;5078299;28;20036;-85
2022/05/29 03:11:21;;;;;;;8.53;2.60;;;;;;;7.01;89.38;101553.53;5112389;28;20483;-86
2022/05/29 03:13:59;;;;;;;12.85;2.78;;;;;;;7.09;89.24;101556.19;5112518;28;20073;-86
2022/05/29 03:16:36;;;;;;;4.80;2.50;;;;;;;7.16;89.31;101556.31;5113892;28;20032;-86
2022/05/29 03:19:20;;;;;;;6.60;2.30;;;;;;;7.18;88.96;101554.31;5116003;28;20031;-86
2022/05/29 03:22:08;;;;;;;13.70;3.03;;;;;;;7.23;88.92;101554.59;5117153;28;20081;-85
2022/05/29 03:24:43;;;;;;;10.17;2.60;;;;;;;7.27;88.74;101553.25;5116111;28;20023;-85
2022/05/29 03:27:20;;;;;;;11.13;2.65;;;;;;;7.32;88.48;101547.31;5116217;28;20050;-85
2022/05/29 03:29:56;;;;;;;8.88;2.22;;;;;;;7.39;88.39;101551.00;5116030;28;20032;-86
2022/05/29 03:32:23;;;;;;;9.27;2.58;;;;;;;7.43;88.80;101546.94;5117005;28;20054;-85
2022/05/29 03:34:49;;;;;;;9.98;2.53;;;;;;;7.46;88.11;101543.03;5099026;28;20035;-85
2022/05/29 03:37:14;;;;;;;9.87;2.13;;;;;;;7.54;87.84;101551.06;5115740;28;20034;-85
2022/05/29 03:39:39;;;;;;;5.57;2.20;;;;;;;7.58;87.09;101547.00;5115468;28;20043;-86
2022/05/29 03:42:05;;;;;;;8.10;2.40;;;;;;;7.67;86.55;101542.41;5116712;28;20027;-86
2022/05/29 03:44:32;;;;;;;8.73;2.28;;;;;;;7.73;86.56;101534.41;5099547;28;20047;-85
2022/05/29 03:46:57;;;;;;;7.50;2.33;;;;;;;7.82;86.67;101540.59;5116397;28;20036;-85
2022/05/29 03:49:23;;;;;;;9.20;2.30;;;;;;;7.87;86.69;101529.25;5098582;28;20482;-86
2022/05/29 03:51:49;;;;;;;7.72;2.42;;;;;;;7.94;86.05;101527.50;5116637;28;20031;-85
2022/05/29 03:54:15;;;;;;;5.40;2.07;;;;;;;8.01;85.92;101527.63;5115332;28;20028;-85
2022/05/29 03:56:40;;;;;;;8.18;2.05;;;;;;;8.05;85.87;101528.94;5098463;28;20471;-85
2022/05/29 03:59:06;;;;;;;8.07;2.10;;;;;;;8.06;85.31;101515.25;5116648;28;20027;-85
2022/05/29 04:01:33;;;;;;;9.73;2.45;;;;;;;8.15;85.93;101521.41;5098329;28;20386;-85
2022/05/29 04:03:59;;;;;;;9.50;2.30;;;;;;;8.20;85.32;101520.88;5098486;28;20374;-86
2022/05/29 04:06:26;;;;;;;16.17;2.50;;;;;;;8.23;85.64;101523.19;5115530;28;20038;-85
2022/05/29 04:14:24;;;;;;;10.48;2.78;;;;;;;8.36;84.38;101515.28;5116431;28;20485;-85
2022/05/29 04:16:51;;;;;;;6.20;1.83;;;;;;;8.38;84.48;101520.53;5116631;28;20106;-85
2022/05/29 04:19:16;;;;;;;7.70;2.28;;;;;;;8.43;84.67;101516.25;5114937;28;20051;-85
2022/05/29 04:21:42;;;;;;;8.90;2.40;;;;;;;8.47;85.06;101514.03;5098625;28;20056;-86
2022/05/29 04:24:08;;;;;;;11.60;2.58;;;;;;;8.48;84.34;101510.31;5116382;28;20036;-85
2022/05/29 04:26:34;;;;;;;14.17;2.53;;;;;;;8.51;84.40;101507.22;5097356;28;20036;-85
2022/05/29 04:29:05;;;;;;;9.93;2.65;;;;;;;8.48;84.33;101513.00;5113643;28;20020;-85
2022/05/29 04:31:34;;;;;;;8.60;2.20;;;;;;;8.46;84.94;101506.09;5115587;28;20095;-86
2022/05/29 04:33:59;;;;;;;15.30;2.42;;;;;;;8.50;85.70;101513.66;5114432;28;20096;-85
2022/05/29 04:36:25;;;;;;;6.70;2.27;;;;;;;8.55;85.69;101513.13;5114232;28;20464;-85
2022/05/29 04:38:52;;;;;;;7.65;2.78;;;;;;;8.63;85.34;101517.59;5115877;28;20031;-85
2022/05/29 04:41:19;;;;;;;11.23;2.40;;;;;;;8.66;87.27;101523.47;5097857;28;20124;-85
2022/05/29 04:43:45;;;;;;;12.02;2.60;;;;;;;8.67;87.13;101522.44;5097691;28;20504;-84
2022/05/29 04:46:10;;;;;;;9.70;2.78;;;;;;;8.68;89.03;101524.13;5114869;28;20023;-83
2022/05/29 04:48:36;;;;;;;13.03;3.50;;;;;;;8.59;89.51;101536.91;5097483;28;20063;-83
2022/05/29 04:51:03;;;;;;;11.43;3.43;;;;;;;8.43;90.38;101529.75;5080535;28;20161;-82
2022/05/29 04:53:30;;;;;;;8.07;2.97;;;;;;;8.36;91.26;101528.81;5115690;28;20027;-81
2022/05/29 04:55:57;;;;;;;9.98;3.58;;;;;;;8.33;92.64;101528.34;5114346;28;20148;-81
2022/05/29 04:58:25;;;;;;;7.90;2.88;;;;;;;8.34;93.52;101528.16;5114178;28;20024;-80
2022/05/29 05:00:59;;;;;;;9.73;3.40;;;;;;;8.37;94.23;101522.41;5114234;28;20078;-81
2022/05/29 05:03:25;;;;;;;10.70;3.20;;;;;;;8.38;93.51;101521.34;5115796;28;20098;-81
2022/05/29 05:05:50;;;;;;;12.18;3.10;;;;;;;8.41;93.72;101522.84;5115498;28;20112;-81
2022/05/29 05:08:16;;;;;;;11.60;3.60;;;;;;;8.46;94.32;101515.06;5080170;28;20111;-81
2022/05/29 05:10:42;;;;;;;8.23;3.37;;;;;;;8.55;95.10;101513.13;5114469;28;20380;-81
2022/05/29 05:13:08;;;;;;;11.60;3.15;;;;;;;8.58;95.17;101508.16;5113714;28;20479;-81
2022/05/29 05:15:34;;;;;;;7.28;3.05;;;;;;;8.59;93.93;101509.84;5096741;28;20032;-81
2022/05/29 05:18:00;;;;;;;11.07;3.60;;;;;;;8.54;94.84;101508.72;5114895;28;20039;-81
2022/05/29 05:20:26;;;;;;;11.10;3.33;;;;;;;8.53;94.68;101510.59;5114456;28;20027;-81
2022/05/29 05:22:52;;;;;;;8.60;2.87;;;;;;;8.55;94.41;101507.72;5097603;28;20034;-81
2022/05/29 05:25:17;;;;;;;7.88;2.60;;;;;;;8.59;94.47;101504.44;5097566;28;20035;-83
2022/05/29 05:27:43;;;;;;;8.40;2.93;;;;;;;8.67;95.31;101511.63;5096650;28;20028;-86
2022/05/29 05:30:09;;;;;;;8.73;2.93;;;;;;;8.67;94.43;101502.69;5097498;28;20027;-84
2022/05/29 05:32:35;;;;;;;9.13;2.80;;;;;;;8.77;95.11;101500.53;5113779;28;20285;-83
2022/05/29 05:35:04;;;;;;;9.82;3.33;;;;;;;8.88;95.39;101496.50;5096615;28;20448;-83
2022/05/29 05:37:30;;;;;;;8.33;2.50;;;;;;;8.90;93.58;101505.25;5113524;28;20035;-84
2022/05/29 05:39:56;;;;;;;10.48;2.90;;;;;;;8.92;93.68;101503.22;5112658;28;20112;-85
2022/05/29 05:42:21;;;;;;;6.17;3.00;;;;;;;8.97;94.69;101506.19;5113433;28;20118;-85
2022/05/29 05:44:48;;;;;;;8.00;2.80;;;;;;;9.01;94.02;101503.97;5096296;28;20036;-84
2022/05/29 05:47:14;;;;;;;9.02;2.95;;;;;;;9.01;94.65;101490.41;5114898;28;20463;-84
2022/05/29 05:49:39;;;;;;;8.60;3.00;;;;;;;9.10;94.53;101506.34;5113600;28;20028;-84
2022/05/29 05:52:05;;;;;;;16.07;3.57;;;;;;;9.17;94.07;101505.59;5114591;28;20035;-83
2022/05/29 05:54:34;;;;;;;13.20;3.83;;;;;;;9.13;93.98;101503.25;5096356;28;20031;-84
2022/05/29 05:56:59;;;;;;;12.30;3.20;;;;;;;9.16;94.42;101501.22;5114455;28;20032;-83
2022/05/29 05:59:25;;;;;;;9.35;3.38;;;;;;;9.33;94.44;101502.69;5096099;28;20023;-84
2022/05/29 06:01:53;;;;;;;10.70;3.30;;;;;;;9.36;94.82;101499.59;5113312;28;20028;-84
2022/05/29 06:04:18;;;;;;;9.50;3.55;;;;;;;9.33;94.17;101496.41;5113145;28;20032;-85
2022/05/29 06:06:44;;;;;;;6.50;2.83;;;;;;;9.40;95.04;101494.59;5096398;28;20475;-85
2022/05/29 06:09:09;;;;;;;12.60;3.30;;;;;;;9.43;94.39;101491.50;5095958;28;20424;-84
2022/05/29 06:11:39;;;;;;;11.40;2.93;;;;;;;9.43;94.41;101492.38;5096292;28;20035;-85
2022/05/29 06:14:10;;;;;;;10.13;3.00;;;;;;;9.47;93.39;101496.34;5113742;28;20039;-84
2022/05/29 06:16:38;;;;;;;9.43;3.03;;;;;;;9.50;93.85;101497.00;5112961;28;20035;-83
2022/05/29 06:19:06;;;;;;;7.25;2.67;;;;;;;9.53;91.77;101486.63;5096277;28;20035;-84
2022/05/29 06:21:35;;;;;;;11.48;2.85;;;;;;;9.61;92.88;101489.22;5112820;28;20036;-83
2022/05/29 06:24:01;;;;;;;9.07;3.17;;;;;;;9.83;93.07;101491.91;5112931;28;20055;-83
2022/05/29 06:26:27;;;;;;;9.18;2.97;;;;;;;9.97;92.43;101485.56;5112641;28;20521;-83
2022/05/29 06:28:52;;;;;;;10.17;2.70;;;;;;;10.09;90.97;101488.59;5112396;28;20062;-83
2022/05/29 06:31:18;;;;;;;10.57;2.60;;;;;;;10.28;91.52;101487.06;5078931;28;20066;-83
2022/05/29 06:33:43;;;;;;;6.57;2.72;;;;;;;10.37;90.93;101490.50;5096007;28;20123;-83
2022/05/29 06:36:23;;;;;;;9.20;2.67;;;;;;;10.61;90.63;101485.63;5112617;28;20031;-83
2022/05/29 06:38:49;;;;;;;10.25;2.67;;;;;;;10.88;88.84;101481.19;5112638;28;20080;-83
2022/05/29 06:41:17;;;;;;;10.90;2.30;;;;;;;11.01;87.79;101502.09;5114486;28;20096;-83
2022/05/29 06:43:42;;;;;;;9.83;2.30;;;;;;;11.14;87.92;101494.00;5095913;28;20078;-82
2022/05/29 06:46:09;;;;;;;6.50;2.65;;;;;;;11.44;87.42;101495.56;5112846;28;20067;-83
2022/05/29 06:48:37;;;;;;;9.13;2.50;;;;;;;11.54;85.27;101496.84;5113893;28;20074;-83
2022/05/29 06:51:08;;;;;;;9.80;2.30;;;;;;;11.63;84.06;101499.38;5113780;28;20387;-83
2022/05/29 06:53:33;;;;;;;7.90;2.15;;;;;;;11.62;84.29;101494.97;5117033;28;20031;-83
2022/05/29 06:55:59;;;;;;;11.57;1.90;;;;;;;11.74;83.83;101498.78;5116548;28;20047;-83
2022/05/29 06:58:24;;;;;;;10.43;2.33;;;;;;;11.84;82.79;101491.03;5116752;28;20305;-83
2022/05/29 07:09:04;;;;;;;8.82;2.00;;;;;;;12.17;80.02;101492.94;5117873;28;20039;-83
2022/05/29 07:11:34;;;;;;;8.27;2.10;;;;;;;12.46;80.31;101490.84;5099633;28;20035;-83
2022/05/29 07:14:02;;;;;;;6.28;1.75;;;;;;;12.59;78.60;101479.91;5116661;28;20023;-83
2022/05/29 07:16:27;;;;;;;8.48;2.00;;;;;;;12.81;79.12;101485.94;5116168;28;20035;-83
2022/05/29 07:18:54;;;;;;;6.80;2.07;;;;;;;12.95;78.55;101481.25;5117127;28;20039;-83
2022/05/29 07:21:20;;;;;;;13.73;3.00;;;;;;;13.10;76.97;101480.97;5116565;28;20323;-84
2022/05/29 07:23:46;;;;;;;5.65;2.13;;;;;;;13.14;75.38;101482.22;5098983;28;20039;-83
2022/05/29 07:26:11;;;;;;;6.07;2.07;;;;;;;13.07;74.66;101475.13;5099620;28;20035;-84
2022/05/29 07:28:37;;;;;;;14.93;2.40;;;;;;;13.20;77.19;101476.94;5116710;28;20281;-84
2022/05/29 07:31:03;;;;;;;6.90;1.73;;;;;;;13.21;73.96;101474.00;5115867;28;20031;-84
2022/05/29 07:33:29;;;;;;;7.03;1.55;;;;;;;13.36;74.02;101476.50;5115999;28;20386;-84
2022/05/29 07:35:55;;;;;;;6.80;2.00;;;;;;;13.38;72.36;101474.38;5115487;28;20482;-85
2022/05/29 07:38:22;;;;;;;7.13;1.92;;;;;;;13.13;72.36;101477.81;5115615;28;20159;-84
2022/05/29 07:40:48;;;;;;;9.57;1.70;;;;;;;13.15;70.85;101469.41;5117195;28;20069;-85
2022/05/29 07:43:21;;;;;;;6.75;1.50;;;;;;;13.24;71.19;101468.13;5098113;28;20031;-85
2022/05/29 07:45:54;;;;;;;10.43;2.22;;;;;;;13.47;71.67;101477.66;5115285;28;20031;-84
2022/05/29 07:48:24;;;;;;;8.27;1.60;;;;;;;13.69;71.80;101475.44;5115314;28;20119;-84
2022/05/29 07:50:53;;;;;;;7.65;1.73;;;;;;;13.75;69.77;101471.81;5116457;28;20028;-85
2022/05/29 07:53:18;;;;;;;6.40;1.55;;;;;;;13.92;69.56;101458.47;5116406;28;20063;-85
2022/05/29 07:55:44;;;;;;;7.90;2.07;;;;;;;14.20;69.74;101458.00;5115709;28;20051;-85
2022/05/29 07:58:17;;;;;;;8.82;2.05;;;;;;;14.34;67.26;101455.97;5115505;28;20032;-85
2022/05/29 08:00:42;;;;;;;5.90;1.90;;;;;;;14.38;68.00;101467.28;5117144;28;20028;-85
2022/05/29 08:03:08;;;;;;;5.47;1.60;;;;;;;14.54;68.26;101460.38;5114783;28;20037;-85
2022/05/29 08:05:36;;;;;;;6.05;2.22;;;;;;;14.63;65.37;101452.75;5116394;28;20031;-85
2022/05/29 08:08:08;;;;;;;9.63;1.80;;;;;;;14.70;65.21;101459.81;5114962;28;20031;-86
2022/05/29 08:10:35;;;;;;;7.40;3.03;;;;;;;14.79;64.75;101464.97;5098705;28;20034;-85
2022/05/29 08:13:01;;;;;;;8.63;1.80;;;;;;;14.78;63.01;101464.13;5114768;28;20498;-85
2022/05/29 08:15:32;;;;;;;7.85;1.70;;;;;;;14.83;61.60;101463.44;5114802;28;20122;-85
2022/05/29 08:17:58;;;;;;;7.65;1.63;;;;;;;15.00;62.36;101455.44;5116392;27;20352;-85
2022/05/29 08:20:24;;;;;;;5.75;1.75;;;;;;;15.19;61.61;101450.78;5116334;28;20105;-86
2022/05/29 08:22:56;;;;;;;4.87;1.40;;;;;;;15.33;59.63;101455.00;5115041;28;20032;-86
2022/05/29 08:30:54;;;;;;;7.82;1.60;;;;;;;15.49;58.91;101447.22;5116432;28;20450;-86
2022/05/29 08:33:23;;;;;;;6.13;1.87;;;;;;;15.82;59.89;101446.69;5097337;28;20080;-85
2022/05/29 08:36:08;;;;;;;7.57;2.10;;;;;;;16.30;59.40;101434.69;5114835;28;20035;-85
2022/05/29 08:38:37;;;;;;;8.57;1.80;;;;;;;16.69;58.57;101434.16;5115063;28;20031;-84
2022/05/29 08:41:13;;;;;;;8.88;1.90;;;;;;;16.86;56.27;101430.66;5114480;28;20134;-84
2022/05/29 08:43:47;;;;;;;6.55;1.67;;;;;;;16.41;55.45;101440.41;5115486;28;20027;-84
2022/05/29 08:46:19;;;;;;;7.87;1.70;;;;;;;16.20;57.09;101433.66;5115202;28;20027;-85
2022/05/29 08:48:47;;;;;;;6.72;1.70;;;;;;;16.15;56.39;101434.38;5114200;28;20436;-85
2022/05/29 08:51:31;;;;;;;5.13;1.55;;;;;;;16.02;57.83;101442.78;5114225;28;20031;-85
2022/05/29 08:54:23;;;;;;;4.63;1.50;;;;;;;15.82;59.35;101427.53;5114504;28;20123;-85
2022/05/29 08:57:06;;;;;;;6.85;1.92;;;;;;;15.79;59.80;101433.50;5115106;28;20467;-85
2022/05/29 08:59:51;;;;;;;8.43;1.80;;;;;;;15.89;59.03;101436.47;5115198;28;20024;-85
2022/05/29 09:02:51;;;;;;;8.95;1.80;;;;;;;16.30;58.29;101437.44;5113595;28;20069;-85
2022/05/29 09:05:19;;;;;;;6.53;1.55;;;;;;;16.57;54.76;101433.34;5113918;28;20290;-85
2022/05/29 09:07:49;;;;;;;6.75;1.90;;;;;;;16.46;54.25;101429.53;5115598;28;20035;-85
2022/05/29 09:10:25;;;;;;;8.43;2.50;;;;;;;16.17;56.66;101420.44;5115321;28;20031;-86
2022/05/29 09:12:54;;;;;;;12.13;1.80;;;;;;;15.99;59.32;101433.16;5115128;28;20104;-85
2022/05/29 09:15:33;;;;;;;6.38;1.80;;;;;;;15.91;60.23;101419.81;5114416;28;20031;-84
2022/05/29 09:18:20;;;;;;;7.47;1.88;;;;;;;15.80;58.00;101421.50;5115408;27;20063;-84
2022/05/29 09:20:51;;;;;;;8.15;1.50;;;;;;;15.88;56.40;101417.56;5114024;28;20031;-85
2022/05/29 09:23:28;;;;;;;8.50;1.77;;;;;;;16.11;55.73;101414.00;5113755;28;20035;-84
2022/05/29 09:25:55;;;;;;;4.00;1.20;;;;;;;16.30;54.69;101410.06;5115068;28;20458;-85
2022/05/29 09:28:38;;;;;;;6.40;1.50;;;;;;;15.76;55.66;101412.88;5114292;28;20031;-85
2022/05/29 09:31:31;;;;;;;8.90;1.50;;;;;;;15.88;56.39;101406.63;5114978;28;20072;-85
2022/05/29 09:34:00;;;;;;;6.60;1.10;;;;;;;15.71;56.03;101411.94;5111496;28;20479;-85
2022/05/29 09:37:06;;;;;;;7.28;2.88;;;;;;;15.93;57.63;101412.22;5114283;28;20092;-85
2022/05/29 09:39:41;;;;;;;8.33;1.40;;;;;;;15.89;56.15;101406.38;5113338;28;20538;-85
2022/05/29 09:42:21;;;;;;;5.57;1.83;;;;;;;15.63;55.06;101413.09;5113309;28;20042;-85
2022/05/29 09:45:25;;;;;;;4.55;1.25;;;;;;;15.50;56.59;101402.38;5115084;28;20386;-85
2022/05/29 09:50:57;;;;;;;7.93;1.60;;;;;;;15.89;55.81;101402.81;5113780;28;20104;-85
2022/05/29 09:53:34;;;;;;;5.03;1.50;;;;;;;15.83;55.32;101398.31;5114769;28;20363;-85
2022/05/29 09:55:59;;;;;;;4.43;1.77;;;;;;;15.75;56.09;101392.06;5113084;28;20114;-85
2022/05/29 09:58:30;;;;;;;6.40;1.67;;;;;;;15.59;55.43;101392.78;5112972;28;20070;-85
2022/05/29 10:01:01;;;;;;;4.63;1.42;;;;;;;15.61;55.80;101377.78;5114988;28;20020;-85
2022/05/29 10:03:44;;;;;;;8.90;1.52;;;;;;;16.03;54.57;101376.03;5113305;28;20024;-85
2022/05/29 10:06:16;;;;;;;6.50;1.85;;;;;;;16.00;53.64;101376.50;5113324;28;20032;-85
2022/05/29 10:08:49;;;;;;;5.50;1.40;;;;;;;16.05;51.64;101368.44;5113178;28;20024;-85
2022/05/29 10:11:37;;;;;;;5.23;1.30;;;;;;;15.98;53.70;101384.97;5114136;28;20032;-84
2022/05/29 10:14:33;;;;;;;9.88;1.45;;;;;;;16.14;53.31;101376.03;5114229;28;20024;-85
2022/05/29 10:16:59;;;;;;;6.38;1.40;;;;;;;16.32;52.90;101374.22;5112497;28;20103;-85
2022/05/29 10:19:32;;;;;;;7.30;2.00;;;;;;;16.21;57.86;101384.13;5078557;28;20036;-85
2022/05/29 10:22:00;;;;;;;5.75;1.67;;;;;;;15.78;62.99;101391.63;5114508;28;20035;-86
2022/05/29 10:24:37;;;;;;;4.47;1.20;;;;;;;15.20;60.95;101393.16;5096614;28;20480;-86
2022/05/29 10:27:15;;;;;;;1.83;0.80;;;;;;;14.73;63.50;101385.63;5113321;28;20172;-86
2022/05/29 10:29:44;;;;;;;1.60;0.60;;;;;;;14.72;64.59;101383.94;5111505;28;20031;-86
2022/05/29 10:32:21;;;;;;;4.88;1.13;;;;;;;14.86;64.03;101381.84;5096309;28;20035;-86
2022/05/29 10:34:48;;;;;;;3.40;1.00;;;;;;;14.87;64.99;101363.59;5113529;28;20039;-85
2022/05/29 10:37:29;;;;;;;2.40;0.90;;;;;;;14.88;63.01;101373.44;5112828;28;20439;-84
2022/05/29 10:40:28;;;;;;;2.90;1.10;;;;;;;14.86;64.18;101362.72;5112087;28;20055;-85
2022/05/29 10:43:04;;;;;;;3.80;1.40;;;;;;;14.76;63.77;101373.38;5114294;28;20073;-84
2022/05/29 10:45:33;;;;;;;5.82;1.33;;;;;;;14.45;65.73;101386.13;5111898;28;20024;-85
2022/05/29 10:48:23;;;;;;;4.90;1.63;;;;;;;14.08;67.39;101388.84;5112521;28;20035;-85
2022/05/29 10:51:00;;;;;;;8.00;1.83;;;;;;;13.78;68.39;101384.09;5116162;28;20024;-88
2022/05/29 10:53:48;;;;;;;9.50;2.10;;;;;;;13.62;71.88;101398.28;5113150;28;20070;-86
2022/05/29 10:56:19;;;;;;;7.73;1.80;;;;;;;13.16;74.54;101401.09;5115752;28;20036;-88
2022/05/29 10:58:59;;;;;;;10.65;1.80;;;;;;;12.75;76.70;101396.09;5112893;28;20053;-88
2022/05/29 11:05:05;;;;;;;5.97;1.63;;;;;;;12.64;74.89;101386.72;5113709;28;20058;-86
2022/05/29 11:08:06;;;;;;;6.07;1.75;;;;;;;12.95;78.63;101385.09;5113574;28;20064;-86
2022/05/29 11:10:56;;;;;;;4.63;2.10;;;;;;;13.41;78.70;101381.25;5113318;28;20032;-86
2022/05/29 11:13:59;;;;;;;5.82;1.98;;;;;;;14.06;77.16;101374.59;5112443;28;20031;-88
2022/05/29 11:16:49;;;;;;;3.95;1.65;;;;;;;15.38;75.22;101369.53;5112056;28;20048;-86
2022/05/29 11:19:23;;;;;;;3.65;1.23;;;;;;;17.25;69.48;101371.38;5113228;28;20053;-86
2022/05/29 11:22:07;;;;;;;4.43;1.48;;;;;;;17.50;63.50;101372.91;5112349;28;20512;-86
2022/05/29 11:24:58;;;;;;;5.07;1.40;;;;;;;16.09;68.37;101381.41;5113509;28;20098;-85
2022/05/29 11:28:04;;;;;;;3.15;1.20;;;;;;;14.75;70.61;101374.47;5113274;28;20026;-86
2022/05/29 11:30:56;;;;;;;3.60;1.13;;;;;;;14.14;73.43;101377.03;5112304;28;20034;-87
2022/05/29 11:33:27;;;;;;;6.75;1.50;;;;;;;13.96;78.66;101385.19;5108021;28;20043;-86
2022/05/29 11:36:12;;;;;;;3.65;1.52;;;;;;;13.96;77.18;101379.72;5117578;28;20035;-86
2022/05/29 11:38:41;;;;;;;4.30;1.17;;;;;;;14.01;77.27;101379.88;5115454;28;20480;-86
2022/05/29 11:41:41;;;;;;;3.88;1.00;;;;;;;13.98;77.34;101378.47;5115147;28;20427;-86
2022/05/29 11:44:27;;;;;;;3.63;1.02;;;;;;;13.86;75.45;101378.38;5082220;28;20075;-86
2022/05/29 11:53:01;;;;;;;3.33;1.00;;;;;;;13.72;76.22;101376.81;5117295;28;20403;-86
2022/05/29 11:55:35;;;;;;;1.85;1.00;;;;;;;13.82;77.16;101376.31;5116928;28;20520;-86
2022/05/29 11:58:09;;;;;;;2.20;0.90;;;;;;;14.00;74.48;101375.50;5115279;28;20544;-86
2022/05/29 12:00:45;;;;;;;2.20;0.70;;;;;;;14.14;71.54;101368.00;5116695;27;20024;-86
2022/05/29 12:03:38;;;;;;;4.43;0.80;;;;;;;14.74;70.60;101370.88;5116276;28;20097;-86
2022/05/29 12:06:15;;;;;;;1.83;0.70;;;;;;;15.59;69.72;101368.16;5116533;27;20023;-86
2022/05/29 12:09:05;;;;;;;1.35;0.60;;;;;;;16.74;65.83;101368.50;5115888;28;20031;-86
2022/05/29 12:11:52;;;;;;;3.03;0.80;;;;;;;18.71;62.92;101360.31;5115176;28;20478;-86
2022/05/29 12:14:47;;;;;;;3.17;0.95;;;;;;;21.53;55.12;101348.44;5114973;28;20514;-86
2022/05/29 12:17:17;;;;;;;1.88;0.70;;;;;;;22.66;47.45;101350.91;5116969;28;20024;-86
2022/05/29 12:20:04;;;;;;;1.50;0.60;;;;;;;22.54;49.56;101339.31;5116366;28;20032;-86
2022/05/29 12:22:37;;;;;;;3.50;0.63;;;;;;;22.02;48.76;101344.19;5114906;28;20035;-86
2022/05/29 12:25:18;;;;;;;2.30;0.70;;;;;;;21.53;47.94;101346.50;5115329;28;20475;-86
2022/05/29 12:27:44;;;;;;;1.88;0.80;;;;;;;21.15;48.21;101334.06;5116507;28;20057;-86